Wheeler, Indiana
Current Conditions -  °F | °C
As of 5:56 PM on Thursday 18 Dec 2014 (Local Time) from KVPZ Reporting Station
Overcast Overcast  
Wind Chill: 23°   Ceiling: 2200
Heat Index: 23°   Visibility: 9mi
Dew Point: 18°   Wind: 3mph
Humidity: 81%   Direction: 270°W
Pressure: 30.25"   Gusts: NA
Location:  41.51°N, 87.18°W
Report Text: KVPZ 182356Z AUTO 27003KT 9SM OVC022 M05/M08 A3025 RMK AO2 SLP254 T10501078 11028 21061 53008 TSNO
Loading
Personal Weather Stations






























Interactive Weather Map New forecast layout! Learn more

10-Day Weather Forecast

Advertisements
Track Severe Weather on mobile